sensor_id;sensor_type;location;lat;lon;timestamp;pressure;altitude;pressure_sealevel;temperature;humidity
4570;BME280;2297;51.442;6.996;2022-12-18T00:01:40;101488.31;;;0.47;40.39
4570;BME280;2297;51.442;6.996;2022-12-18T00:04:19;101474.59;;;0.52;40.02
4570;BME280;2297;51.442;6.996;2022-12-18T00:06:46;101494.41;;;0.27;39.74
4570;BME280;2297;51.442;6.996;2022-12-18T00:09:13;101501.88;;;0.40;39.23
4570;BME280;2297;51.442;6.996;2022-12-18T00:11:40;101505.91;;;0.55;39.20
4570;BME280;2297;51.442;6.996;2022-12-18T00:14:06;101519.72;;;0.54;39.54
4570;BME280;2297;51.442;6.996;2022-12-18T00:16:33;101509.34;;;0.54;39.55
4570;BME280;2297;51.442;6.996;2022-12-18T00:19:03;101514.47;;;0.52;39.77
4570;BME280;2297;51.442;6.996;2022-12-18T00:21:32;101505.16;;;0.57;39.57
4570;BME280;2297;51.442;6.996;2022-12-18T00:23:59;101511.25;;;0.58;39.53
4570;BME280;2297;51.442;6.996;2022-12-18T00:26:28;101503.91;;;0.47;39.90
4570;BME280;2297;51.442;6.996;2022-12-18T00:28:58;101502.13;;;0.46;40.01
4570;BME280;2297;51.442;6.996;2022-12-18T00:31:25;101510.53;;;0.39;40.06
4570;BME280;2297;51.442;6.996;2022-12-18T00:33:53;101503.28;;;0.32;40.21
4570;BME280;2297;51.442;6.996;2022-12-18T00:36:21;101498.84;;;0.29;40.37
4570;BME280;2297;51.442;6.996;2022-12-18T00:38:49;101499.06;;;0.34;40.21
4570;BME280;2297;51.442;6.996;2022-12-18T00:41:17;101499.88;;;0.33;40.25
4570;BME280;2297;51.442;6.996;2022-12-18T00:44:05;101498.78;;;0.28;40.15
4570;BME280;2297;51.442;6.996;2022-12-18T00:46:31;101499.06;;;0.34;39.94
4570;BME280;2297;51.442;6.996;2022-12-18T00:48:58;101495.38;;;0.29;40.11
4570;BME280;2297;51.442;6.996;2022-12-18T00:51:25;101492.88;;;0.32;40.15
4570;BME280;2297;51.442;6.996;2022-12-18T00:53:54;101497.38;;;0.36;39.89
4570;BME280;2297;51.442;6.996;2022-12-18T00:56:23;101495.94;;;0.22;39.96
4570;BME280;2297;51.442;6.996;2022-12-18T00:58:50;101505.19;;;0.36;39.94
4570;BME280;2297;51.442;6.996;2022-12-18T01:01:17;101497.72;;;0.02;39.74
4570;BME280;2297;51.442;6.996;2022-12-18T01:03:45;101493.28;;;0.20;39.28
4570;BME280;2297;51.442;6.996;2022-12-18T01:06:13;101488.41;;;0.28;39.33
4570;BME280;2297;51.442;6.996;2022-12-18T01:08:40;101496.44;;;0.34;39.29
4570;BME280;2297;51.442;6.996;2022-12-18T01:11:10;101486.81;;;0.31;39.18
4570;BME280;2297;51.442;6.996;2022-12-18T01:13:37;101498.34;;;0.38;39.09
4570;BME280;2297;51.442;6.996;2022-12-18T01:16:04;101499.34;;;0.42;39.07
4570;BME280;2297;51.442;6.996;2022-12-18T01:18:31;101494.94;;;0.39;38.98
4570;BME280;2297;51.442;6.996;2022-12-18T01:20:58;101493.72;;;0.31;39.04
4570;BME280;2297;51.442;6.996;2022-12-18T01:23:27;101504.69;;;0.24;39.46
4570;BME280;2297;51.442;6.996;2022-12-18T01:25:54;101498.16;;;0.34;39.58
4570;BME280;2297;51.442;6.996;2022-12-18T01:28:22;101500.19;;;0.41;39.48
4570;BME280;2297;51.442;6.996;2022-12-18T01:30:48;101500.13;;;0.39;39.41
4570;BME280;2297;51.442;6.996;2022-12-18T01:33:15;101488.81;;;0.39;39.32
4570;BME280;2297;51.442;6.996;2022-12-18T01:35:42;101495.84;;;0.41;39.53
4570;BME280;2297;51.442;6.996;2022-12-18T01:38:09;101488.31;;;0.47;39.45
4570;BME280;2297;51.442;6.996;2022-12-18T01:40:36;101488.16;;;0.44;39.23
4570;BME280;2297;51.442;6.996;2022-12-18T01:43:03;101489.72;;;0.39;39.32
4570;BME280;2297;51.442;6.996;2022-12-18T01:45:31;101497.59;;;0.41;39.51
4570;BME280;2297;51.442;6.996;2022-12-18T01:48:00;101495.69;;;0.37;39.46
4570;BME280;2297;51.442;6.996;2022-12-18T01:50:31;101491.47;;;0.40;39.61
4570;BME280;2297;51.442;6.996;2022-12-18T01:53:03;101481.34;;;0.46;39.78
4570;BME280;2297;51.442;6.996;2022-12-18T01:55:32;101483.47;;;0.34;40.06
4570;BME280;2297;51.442;6.996;2022-12-18T01:58:02;101468.78;;;0.36;40.01
4570;BME280;2297;51.442;6.996;2022-12-18T02:00:30;101461.97;;;0.38;40.10
4570;BME280;2297;51.442;6.996;2022-12-18T02:02:57;101460.34;;;0.42;40.15
4570;BME280;2297;51.442;6.996;2022-12-18T02:05:32;101470.56;;;0.37;40.22
4570;BME280;2297;51.442;6.996;2022-12-18T02:08:07;101466.44;;;0.42;40.15
4570;BME280;2297;51.442;6.996;2022-12-18T02:10:41;101469.03;;;0.42;40.17
4570;BME280;2297;51.442;6.996;2022-12-18T02:13:13;101479.34;;;0.39;40.07
4570;BME280;2297;51.442;6.996;2022-12-18T02:15:47;101477.56;;;0.38;40.43
4570;BME280;2297;51.442;6.996;2022-12-18T02:18:21;101484.63;;;0.42;40.47
4570;BME280;2297;51.442;6.996;2022-12-18T02:20:54;101475.88;;;0.40;40.55
4570;BME280;2297;51.442;6.996;2022-12-18T02:23:36;101487.25;;;0.42;40.56
4570;BME280;2297;51.442;6.996;2022-12-18T02:26:13;101483.72;;;0.42;40.77
4570;BME280;2297;51.442;6.996;2022-12-18T02:28:45;101483.69;;;0.40;40.80
4570;BME280;2297;51.442;6.996;2022-12-18T02:31:15;101474.50;;;0.48;40.75
4570;BME280;2297;51.442;6.996;2022-12-18T02:33:44;101460.03;;;0.55;40.73
4570;BME280;2297;51.442;6.996;2022-12-18T02:36:13;101457.28;;;0.52;40.76
4570;BME280;2297;51.442;6.996;2022-12-18T02:38:45;101451.44;;;0.58;40.69
4570;BME280;2297;51.442;6.996;2022-12-18T02:41:14;101457.94;;;0.46;40.73
4570;BME280;2297;51.442;6.996;2022-12-18T02:43:46;101459.00;;;0.52;40.94
4570;BME280;2297;51.442;6.996;2022-12-18T02:46:23;101458.34;;;0.57;40.85
4570;BME280;2297;51.442;6.996;2022-12-18T02:48:53;101464.75;;;0.22;41.54
4570;BME280;2297;51.442;6.996;2022-12-18T02:51:29;101466.38;;;0.41;41.14
4570;BME280;2297;51.442;6.996;2022-12-18T02:54:02;101473.16;;;0.37;41.33
4570;BME280;2297;51.442;6.996;2022-12-18T02:56:36;101470.81;;;0.43;41.19
4570;BME280;2297;51.442;6.996;2022-12-18T02:59:07;101479.03;;;0.54;41.36
4570;BME280;2297;51.442;6.996;2022-12-18T03:01:38;101465.38;;;0.60;41.09
4570;BME280;2297;51.442;6.996;2022-12-18T03:04:12;101473.44;;;0.66;40.90
4570;BME280;2297;51.442;6.996;2022-12-18T03:06:43;101476.19;;;0.71;40.80
4570;BME280;2297;51.442;6.996;2022-12-18T03:09:14;101467.66;;;0.75;40.76
4570;BME280;2297;51.442;6.996;2022-12-18T03:11:50;101474.75;;;0.79;40.55
4570;BME280;2297;51.442;6.996;2022-12-18T03:14:38;101474.91;;;0.82;40.70
4570;BME280;2297;51.442;6.996;2022-12-18T03:17:09;101458.53;;;0.85;40.53
4570;BME280;2297;51.442;6.996;2022-12-18T03:19:37;101451.28;;;0.77;40.56
4570;BME280;2297;51.442;6.996;2022-12-18T03:22:07;101454.84;;;0.79;40.62
4570;BME280;2297;51.442;6.996;2022-12-18T03:24:35;101450.31;;;0.74;40.60
4570;BME280;2297;51.442;6.996;2022-12-18T03:27:10;101446.88;;;0.75;40.50
4570;BME280;2297;51.442;6.996;2022-12-18T03:29:40;101447.63;;;0.72;40.57
4570;BME280;2297;51.442;6.996;2022-12-18T03:32:10;101440.84;;;0.76;40.54
4570;BME280;2297;51.442;6.996;2022-12-18T03:34:40;101444.31;;;0.76;40.40
4570;BME280;2297;51.442;6.996;2022-12-18T03:37:08;101447.06;;;0.79;40.59
4570;BME280;2297;51.442;6.996;2022-12-18T03:39:36;101450.31;;;0.74;40.50
4570;BME280;2297;51.442;6.996;2022-12-18T03:42:10;101457.94;;;0.69;40.76
4570;BME280;2297;51.442;6.996;2022-12-18T03:44:44;101459.06;;;0.76;40.55
4570;BME280;2297;51.442;6.996;2022-12-18T03:47:14;101452.13;;;0.76;40.57
4570;BME280;2297;51.442;6.996;2022-12-18T03:49:47;101451.97;;;0.72;40.64
4570;BME280;2297;51.442;6.996;2022-12-18T03:52:21;101447.63;;;0.72;40.56
4570;BME280;2297;51.442;6.996;2022-12-18T03:54:49;101450.13;;;0.69;40.36
4570;BME280;2297;51.442;6.996;2022-12-18T03:57:20;101450.84;;;0.65;39.99
4570;BME280;2297;51.442;6.996;2022-12-18T03:59:50;101451.66;;;0.41;40.38
4570;BME280;2297;51.442;6.996;2022-12-18T04:02:18;101445.94;;;0.50;40.33
4570;BME280;2297;51.442;6.996;2022-12-18T04:04:49;101447.66;;;0.50;40.21
4570;BME280;2297;51.442;6.996;2022-12-18T04:07:18;101438.59;;;0.17;40.54
4570;BME280;2297;51.442;6.996;2022-12-18T04:09:46;101434.84;;;0.31;40.45
4570;BME280;2297;51.442;6.996;2022-12-18T04:12:18;101432.53;;;0.39;40.29
4570;BME280;2297;51.442;6.996;2022-12-18T04:14:46;101441.28;;;0.41;40.39
4570;BME280;2297;51.442;6.996;2022-12-18T04:17:13;101439.84;;;0.50;40.12
4570;BME280;2297;51.442;6.996;2022-12-18T04:19:39;101447.19;;;0.60;39.93
4570;BME280;2297;51.442;6.996;2022-12-18T04:22:06;101448.00;;;0.59;39.84
4570;BME280;2297;51.442;6.996;2022-12-18T04:24:33;101438.56;;;0.61;39.93
4570;BME280;2297;51.442;6.996;2022-12-18T04:26:59;101449.88;;;0.63;39.95
4570;BME280;2297;51.442;6.996;2022-12-18T04:29:26;101447.44;;;0.66;39.84
4570;BME280;2297;51.442;6.996;2022-12-18T04:31:54;101444.09;;;0.70;39.88
4570;BME280;2297;51.442;6.996;2022-12-18T04:34:21;101437.22;;;0.72;39.75
4570;BME280;2297;51.442;6.996;2022-12-18T04:36:48;101448.53;;;0.73;39.76
4570;BME280;2297;51.442;6.996;2022-12-18T04:39:18;101432.81;;;0.70;39.83
4570;BME280;2297;51.442;6.996;2022-12-18T04:41:44;101433.72;;;0.70;39.82
4570;BME280;2297;51.442;6.996;2022-12-18T04:44:11;101428.59;;;0.73;39.98
4570;BME280;2297;51.442;6.996;2022-12-18T04:46:37;101427.78;;;0.74;40.03
4570;BME280;2297;51.442;6.996;2022-12-18T04:49:08;101428.50;;;0.70;39.98
4570;BME280;2297;51.442;6.996;2022-12-18T04:51:36;101420.56;;;0.67;39.84
4570;BME280;2297;51.442;6.996;2022-12-18T04:54:03;101417.97;;;0.67;39.83
4570;BME280;2297;51.442;6.996;2022-12-18T04:56:31;101419.53;;;0.62;39.79
4570;BME280;2297;51.442;6.996;2022-12-18T04:58:58;101422.97;;;0.61;39.91
4570;BME280;2297;51.442;6.996;2022-12-18T05:01:24;101429.59;;;0.53;40.07
4570;BME280;2297;51.442;6.996;2022-12-18T05:03:51;101423.72;;;0.58;39.86
4570;BME280;2297;51.442;6.996;2022-12-18T05:06:19;101414.34;;;0.62;39.85
4570;BME280;2297;51.442;6.996;2022-12-18T05:08:46;101422.28;;;0.67;39.88
4570;BME280;2297;51.442;6.996;2022-12-18T05:11:14;101414.34;;;0.62;39.70
4570;BME280;2297;51.442;6.996;2022-12-18T05:13:41;101409.25;;;0.65;39.62
4570;BME280;2297;51.442;6.996;2022-12-18T05:16:09;101406.75;;;0.68;39.45
4570;BME280;2297;51.442;6.996;2022-12-18T05:18:36;101410.06;;;0.64;39.61
4570;BME280;2297;51.442;6.996;2022-12-18T05:21:03;101404.03;;;0.65;39.72
4570;BME280;2297;51.442;6.996;2022-12-18T05:23:34;101407.56;;;0.67;39.52
4570;BME280;2297;51.442;6.996;2022-12-18T05:26:05;101407.47;;;0.64;39.64
4570;BME280;2297;51.442;6.996;2022-12-18T05:28:34;101409.91;;;0.59;39.78
4570;BME280;2297;51.442;6.996;2022-12-18T05:31:02;101402.97;;;0.60;39.60
4570;BME280;2297;51.442;6.996;2022-12-18T05:33:31;101409.91;;;0.59;39.61
4570;BME280;2297;51.442;6.996;2022-12-18T05:36:02;101405.47;;;0.57;39.72
4570;BME280;2297;51.442;6.996;2022-12-18T05:38:31;101406.34;;;0.57;39.51
4570;BME280;2297;51.442;6.996;2022-12-18T05:40:59;101404.72;;;0.59;39.52
4570;BME280;2297;51.442;6.996;2022-12-18T05:43:26;101414.19;;;0.59;39.40
4570;BME280;2297;51.442;6.996;2022-12-18T05:45:54;101417.50;;;0.55;39.37
4570;BME280;2297;51.442;6.996;2022-12-18T05:48:21;101427.91;;;0.55;39.47
4570;BME280;2297;51.442;6.996;2022-12-18T05:50:49;101434.78;;;0.53;39.43
4570;BME280;2297;51.442;6.996;2022-12-18T05:53:18;101433.94;;;0.54;39.39
4570;BME280;2297;51.442;6.996;2022-12-18T05:55:45;101427.91;;;0.55;39.45
4570;BME280;2297;51.442;6.996;2022-12-18T05:58:14;101435.00;;;0.59;39.70
4570;BME280;2297;51.442;6.996;2022-12-18T06:00:43;101427.25;;;0.60;39.46
4570;BME280;2297;51.442;6.996;2022-12-18T06:03:10;101443.75;;;0.61;39.44
4570;BME280;2297;51.442;6.996;2022-12-18T06:05:41;101442.94;;;0.62;39.49
4570;BME280;2297;51.442;6.996;2022-12-18T06:08:08;101443.75;;;0.61;39.53
4570;BME280;2297;51.442;6.996;2022-12-18T06:10:36;101457.81;;;0.66;39.48
4570;BME280;2297;51.442;6.996;2022-12-18T06:13:03;101475.06;;;0.64;39.44
4570;BME280;2297;51.442;6.996;2022-12-18T06:15:31;101474.31;;;0.67;39.50
4570;BME280;2297;51.442;6.996;2022-12-18T06:17:59;101481.34;;;0.69;39.32
4570;BME280;2297;51.442;6.996;2022-12-18T06:20:26;101483.47;;;0.57;39.58
4570;BME280;2297;51.442;6.996;2022-12-18T06:22:55;101478.97;;;0.53;39.78
4570;BME280;2297;51.442;6.996;2022-12-18T06:25:22;101477.44;;;0.58;39.85
4570;BME280;2297;51.442;6.996;2022-12-18T06:27:48;101480.94;;;0.58;39.83
4570;BME280;2297;51.442;6.996;2022-12-18T06:30:15;101480.06;;;0.58;39.82
4570;BME280;2297;51.442;6.996;2022-12-18T06:32:43;101481.69;;;0.56;39.84
4570;BME280;2297;51.442;6.996;2022-12-18T06:35:10;101478.03;;;0.51;39.66
4570;BME280;2297;51.442;6.996;2022-12-18T06:37:37;101469.41;;;0.52;39.74
4570;BME280;2297;51.442;6.996;2022-12-18T06:40:04;101462.31;;;0.47;39.78
4570;BME280;2297;51.442;6.996;2022-12-18T06:42:31;101459.00;;;0.52;39.96
4570;BME280;2297;51.442;6.996;2022-12-18T06:44:58;101452.03;;;0.51;39.92
4570;BME280;2297;51.442;6.996;2022-12-18T06:47:24;101458.00;;;0.48;40.04
4570;BME280;2297;51.442;6.996;2022-12-18T06:49:52;101451.09;;;0.48;40.09
4570;BME280;2297;51.442;6.996;2022-12-18T06:52:19;101453.69;;;0.48;39.58
4570;BME280;2297;51.442;6.996;2022-12-18T06:54:45;101452.03;;;0.51;39.76
4570;BME280;2297;51.442;6.996;2022-12-18T06:57:12;101438.09;;;0.48;39.13
4570;BME280;2297;51.442;6.996;2022-12-18T06:59:39;101437.75;;;0.39;38.90
4570;BME280;2297;51.442;6.996;2022-12-18T07:02:05;101434.19;;;0.37;38.53
4570;BME280;2297;51.442;6.996;2022-12-18T07:04:32;101420.44;;;0.40;38.20
4570;BME280;2297;51.442;6.996;2022-12-18T07:07:00;101418.84;;;0.43;37.94
4570;BME280;2297;51.442;6.996;2022-12-18T07:09:26;101418.94;;;0.46;37.76
4570;BME280;2297;51.442;6.996;2022-12-18T07:11:53;101410.44;;;0.51;37.64
4570;BME280;2297;51.442;6.996;2022-12-18T07:14:20;101410.47;;;0.52;37.43
4570;BME280;2297;51.442;6.996;2022-12-18T07:16:47;101407.13;;;0.55;37.28
4570;BME280;2297;51.442;6.996;2022-12-18T07:19:13;101415.97;;;0.60;37.32
4570;BME280;2297;51.442;6.996;2022-12-18T07:21:40;101417.66;;;0.58;37.13
4570;BME280;2297;51.442;6.996;2022-12-18T07:24:08;101408.78;;;0.53;37.08
4570;BME280;2297;51.442;6.996;2022-12-18T07:26:35;101408.06;;;0.57;36.80
4570;BME280;2297;51.442;6.996;2022-12-18T07:29:01;101408.91;;;0.56;36.74
4570;BME280;2297;51.442;6.996;2022-12-18T07:31:28;101406.41;;;0.59;36.66
4570;BME280;2297;51.442;6.996;2022-12-18T07:33:55;101407.13;;;0.55;36.36
4570;BME280;2297;51.442;6.996;2022-12-18T07:36:24;101408.91;;;0.56;36.25
4570;BME280;2297;51.442;6.996;2022-12-18T07:38:51;101401.19;;;0.59;36.21
4570;BME280;2297;51.442;6.996;2022-12-18T07:41:19;101393.28;;;0.56;36.28
4570;BME280;2297;51.442;6.996;2022-12-18T07:43:46;101397.06;;;0.64;36.23
4570;BME280;2297;51.442;6.996;2022-12-18T07:46:14;101396.34;;;0.68;37.41
4570;BME280;2297;51.442;6.996;2022-12-18T07:48:41;101393.97;;;0.74;36.46
4570;BME280;2297;51.442;6.996;2022-12-18T07:51:16;101395.75;;;0.75;36.38
4570;BME280;2297;51.442;6.996;2022-12-18T07:53:42;101401.88;;;0.77;36.52
4570;BME280;2297;51.442;6.996;2022-12-18T07:56:11;101393.22;;;0.77;35.95
4570;BME280;2297;51.442;6.996;2022-12-18T07:58:39;101400.38;;;0.84;36.04
4570;BME280;2297;51.442;6.996;2022-12-18T08:01:07;101407.47;;;0.88;36.97
4570;BME280;2297;51.442;6.996;2022-12-18T08:03:34;101411.19;;;0.95;36.24
4570;BME280;2297;51.442;6.996;2022-12-18T08:06:01;101406.16;;;1.00;35.57
4570;BME280;2297;51.442;6.996;2022-12-18T08:08:28;101403.59;;;1.01;35.49
4570;BME280;2297;51.442;6.996;2022-12-18T08:10:55;101402.06;;;1.06;34.92
4570;BME280;2297;51.442;6.996;2022-12-18T08:13:22;101400.28;;;1.05;34.77
4570;BME280;2297;51.442;6.996;2022-12-18T08:15:56;101399.69;;;1.12;34.96
4570;BME280;2297;51.442;6.996;2022-12-18T08:18:23;101387.00;;;1.22;35.00
4570;BME280;2297;51.442;6.996;2022-12-18T08:20:50;101386.13;;;1.23;34.71
4570;BME280;2297;51.442;6.996;2022-12-18T08:23:16;101383.44;;;1.20;34.56
4570;BME280;2297;51.442;6.996;2022-12-18T08:25:43;101380.09;;;1.24;34.90
4570;BME280;2297;51.442;6.996;2022-12-18T08:28:10;101369.81;;;1.27;34.54
4570;BME280;2297;51.442;6.996;2022-12-18T08:30:36;101362.53;;;1.42;34.41
4570;BME280;2297;51.442;6.996;2022-12-18T08:33:04;101359.13;;;1.43;34.79
4570;BME280;2297;51.442;6.996;2022-12-18T08:35:35;101351.59;;;1.53;34.31
4570;BME280;2297;51.442;6.996;2022-12-18T08:38:01;101351.03;;;1.36;34.06
4570;BME280;2297;51.442;6.996;2022-12-18T08:40:28;101341.53;;;1.36;33.71
4570;BME280;2297;51.442;6.996;2022-12-18T08:42:55;101339.16;;;1.44;33.73
4570;BME280;2297;51.442;6.996;2022-12-18T08:45:39;101340.59;;;1.34;33.28
4570;BME280;2297;51.442;6.996;2022-12-18T08:48:07;101342.63;;;1.43;33.39
4570;BME280;2297;51.442;6.996;2022-12-18T08:50:33;101336.94;;;1.55;33.28
4570;BME280;2297;51.442;6.996;2022-12-18T08:53:00;101344.94;;;1.61;33.22
4570;BME280;2297;51.442;6.996;2022-12-18T08:55:27;101344.44;;;1.73;32.82
4570;BME280;2297;51.442;6.996;2022-12-18T08:57:54;101349.78;;;1.76;32.54
4570;BME280;2297;51.442;6.996;2022-12-18T09:00:20;101343.75;;;1.78;32.62
4570;BME280;2297;51.442;6.996;2022-12-18T09:02:47;101344.31;;;1.68;32.42
4570;BME280;2297;51.442;6.996;2022-12-18T09:05:15;101344.44;;;1.73;32.45
4570;BME280;2297;51.442;6.996;2022-12-18T09:07:42;101331.56;;;1.77;32.38
4570;BME280;2297;51.442;6.996;2022-12-18T09:10:09;101340.56;;;1.87;32.33
4570;BME280;2297;51.442;6.996;2022-12-18T09:12:35;101332.63;;;1.83;32.28
4570;BME280;2297;51.442;6.996;2022-12-18T09:15:02;101325.16;;;1.95;32.13
4570;BME280;2297;51.442;6.996;2022-12-18T09:17:29;101321.63;;;1.93;31.89
4570;BME280;2297;51.442;6.996;2022-12-18T09:19:56;101324.69;;;1.79;31.77
4570;BME280;2297;51.442;6.996;2022-12-18T09:22:24;101320.53;;;1.86;31.76
4570;BME280;2297;51.442;6.996;2022-12-18T09:24:50;101313.91;;;1.96;31.74
4570;BME280;2297;51.442;6.996;2022-12-18T09:27:17;101317.75;;;2.09;31.68
4570;BME280;2297;51.442;6.996;2022-12-18T09:29:44;101315.91;;;2.05;31.73
4570;BME280;2297;51.442;6.996;2022-12-18T09:32:10;101315.09;;;2.07;31.60
4570;BME280;2297;51.442;6.996;2022-12-18T09:34:37;101309.91;;;2.07;31.54
4570;BME280;2297;51.442;6.996;2022-12-18T09:37:03;101322.00;;;2.05;30.95
4570;BME280;2297;51.442;6.996;2022-12-18T09:39:31;101309.19;;;2.13;31.20
4570;BME280;2297;51.442;6.996;2022-12-18T09:41:58;101315.84;;;2.03;30.92
4570;BME280;2297;51.442;6.996;2022-12-18T09:44:28;101320.97;;;2.29;30.74
4570;BME280;2297;51.442;6.996;2022-12-18T09:47:03;101332.31;;;2.31;30.78
4570;BME280;2297;51.442;6.996;2022-12-18T09:49:35;101323.34;;;2.21;30.74
4570;BME280;2297;51.442;6.996;2022-12-18T09:52:08;101323.13;;;2.44;30.50
4570;BME280;2297;51.442;6.996;2022-12-18T09:54:42;101330.59;;;2.62;30.24
4570;BME280;2297;51.442;6.996;2022-12-18T09:57:13;101330.69;;;2.65;30.13
4570;BME280;2297;51.442;6.996;2022-12-18T09:59:42;101332.31;;;2.93;29.76
4570;BME280;2297;51.442;6.996;2022-12-18T10:02:14;101316.78;;;2.98;29.75
4570;BME280;2297;51.442;6.996;2022-12-18T10:04:41;101325.25;;;2.89;29.61
4570;BME280;2297;51.442;6.996;2022-12-18T10:07:11;101308.19;;;3.02;29.86
4570;BME280;2297;51.442;6.996;2022-12-18T10:09:47;101295.47;;;3.14;29.62
4570;BME280;2297;51.442;6.996;2022-12-18T10:12:21;101292.06;;;3.19;29.37
4570;BME280;2297;51.442;6.996;2022-12-18T10:14:53;101285.44;;;3.31;29.56
4570;BME280;2297;51.442;6.996;2022-12-18T10:17:26;101276.56;;;3.25;29.54
4570;BME280;2297;51.442;6.996;2022-12-18T10:20:00;101282.25;;;3.43;29.34
4570;BME280;2297;51.442;6.996;2022-12-18T10:22:36;101285.69;;;3.42;29.06
4570;BME280;2297;51.442;6.996;2022-12-18T10:25:17;101270.41;;;3.58;28.82
4570;BME280;2297;51.442;6.996;2022-12-18T10:27:45;101262.53;;;3.56;28.71
4570;BME280;2297;51.442;6.996;2022-12-18T10:30:13;101265.38;;;3.67;28.58
4570;BME280;2297;51.442;6.996;2022-12-18T10:32:41;101262.88;;;3.73;28.52
4570;BME280;2297;51.442;6.996;2022-12-18T10:35:15;101270.25;;;3.88;28.34
4570;BME280;2297;51.442;6.996;2022-12-18T10:37:59;101260.03;;;3.99;28.42
4570;BME280;2297;51.442;6.996;2022-12-18T10:40:28;101253.88;;;3.97;28.51
4570;BME280;2297;51.442;6.996;2022-12-18T10:43:05;101263.66;;;4.06;28.45
4570;BME280;2297;51.442;6.996;2022-12-18T10:45:36;101257.59;;;4.08;28.58
4570;BME280;2297;51.442;6.996;2022-12-18T10:48:03;101264.59;;;4.09;28.27
4570;BME280;2297;51.442;6.996;2022-12-18T10:50:33;101250.97;;;4.26;28.13
4570;BME280;2297;51.442;6.996;2022-12-18T10:53:03;101248.53;;;4.35;28.29
4570;BME280;2297;51.442;6.996;2022-12-18T10:55:34;101247.81;;;4.42;28.13
4570;BME280;2297;51.442;6.996;2022-12-18T10:58:15;101241.63;;;4.37;27.61
4570;BME280;2297;51.442;6.996;2022-12-18T11:00:43;101230.38;;;4.41;27.53
4570;BME280;2297;51.442;6.996;2022-12-18T11:03:29;101233.59;;;4.28;27.63
4570;BME280;2297;51.442;6.996;2022-12-18T11:06:05;101227.59;;;4.34;28.15
4570;BME280;2297;51.442;6.996;2022-12-18T11:08:33;101238.09;;;4.35;27.93
4570;BME280;2297;51.442;6.996;2022-12-18T11:11:01;101228.81;;;4.53;28.04
4570;BME280;2297;51.442;6.996;2022-12-18T11:13:29;101225.41;;;4.57;27.80
4570;BME280;2297;51.442;6.996;2022-12-18T11:15:57;101231.72;;;4.67;28.03
4570;BME280;2297;51.442;6.996;2022-12-18T11:18:27;101224.44;;;4.52;27.85
4570;BME280;2297;51.442;6.996;2022-12-18T11:20:57;101220.28;;;4.63;27.67
4570;BME280;2297;51.442;6.996;2022-12-18T11:23:25;101207.53;;;4.81;27.49
4570;BME280;2297;51.442;6.996;2022-12-18T11:25:55;101191.06;;;4.89;27.35
4570;BME280;2297;51.442;6.996;2022-12-18T11:28:38;101199.94;;;4.97;27.13
4570;BME280;2297;51.442;6.996;2022-12-18T11:31:16;101198.19;;;4.96;27.45
4570;BME280;2297;51.442;6.996;2022-12-18T11:33:46;101207.03;;;5.04;27.39
4570;BME280;2297;51.442;6.996;2022-12-18T11:36:14;101193.09;;;5.05;27.86
4570;BME280;2297;51.442;6.996;2022-12-18T11:38:42;101189.69;;;5.12;27.89
4570;BME280;2297;51.442;6.996;2022-12-18T11:41:18;101189.81;;;5.19;27.88
4570;BME280;2297;51.442;6.996;2022-12-18T11:43:52;101174.06;;;5.15;28.04
4570;BME280;2297;51.442;6.996;2022-12-18T11:46:26;101165.41;;;5.23;28.09
4570;BME280;2297;51.442;6.996;2022-12-18T11:49:01;101159.31;;;5.22;28.07
4570;BME280;2297;51.442;6.996;2022-12-18T11:51:37;101154.06;;;5.22;28.43
4570;BME280;2297;51.442;6.996;2022-12-18T11:54:11;101154.97;;;5.26;28.34
4570;BME280;2297;51.442;6.996;2022-12-18T11:56:43;101158.50;;;5.28;28.34
4570;BME280;2297;51.442;6.996;2022-12-18T11:59:19;101155.03;;;5.29;28.20
4570;BME280;2297;51.442;6.996;2022-12-18T12:01:51;101158.53;;;5.31;27.94
4570;BME280;2297;51.442;6.996;2022-12-18T12:04:37;101154.25;;;5.35;27.64
4570;BME280;2297;51.442;6.996;2022-12-18T12:07:18;101162.09;;;5.33;26.75
4570;BME280;2297;51.442;6.996;2022-12-18T12:09:56;101160.03;;;5.13;26.86
4570;BME280;2297;51.442;6.996;2022-12-18T12:12:37;101151.47;;;5.24;26.59
4570;BME280;2297;51.442;6.996;2022-12-18T12:15:29;101158.47;;;5.25;26.31
4570;BME280;2297;51.442;6.996;2022-12-18T12:18:05;101157.91;;;4.88;26.23
4570;BME280;2297;51.442;6.996;2022-12-18T12:20:44;101163.50;;;5.12;26.16
4570;BME280;2297;51.442;6.996;2022-12-18T12:23:17;101148.56;;;5.04;26.33
4570;BME280;2297;51.442;6.996;2022-12-18T12:25:49;101151.25;;;5.10;26.20
4570;BME280;2297;51.442;6.996;2022-12-18T12:28:35;101145.19;;;5.14;26.12
4570;BME280;2297;51.442;6.996;2022-12-18T12:31:16;101146.34;;;5.30;26.13
4570;BME280;2297;51.442;6.996;2022-12-18T12:33:53;101142.81;;;5.31;26.51
4570;BME280;2297;51.442;6.996;2022-12-18T12:36:32;101134.28;;;5.44;26.72
4570;BME280;2297;51.442;6.996;2022-12-18T12:39:08;101134.28;;;5.44;26.86
4570;BME280;2297;51.442;6.996;2022-12-18T12:41:38;101133.16;;;5.27;27.11
4570;BME280;2297;51.442;6.996;2022-12-18T12:44:28;101129.00;;;5.41;26.65
4570;BME280;2297;51.442;6.996;2022-12-18T12:47:01;101135.94;;;5.38;26.70
4570;BME280;2297;51.442;6.996;2022-12-18T12:49:33;101137.81;;;5.46;26.71
4570;BME280;2297;51.442;6.996;2022-12-18T12:52:05;101134.25;;;5.41;26.65
4570;BME280;2297;51.442;6.996;2022-12-18T12:54:34;101127.19;;;5.36;26.92
4570;BME280;2297;51.442;6.996;2022-12-18T12:57:09;101116.56;;;5.25;27.18
4570;BME280;2297;51.442;6.996;2022-12-18T12:59:47;101112.72;;;5.01;27.51
4570;BME280;2297;51.442;6.996;2022-12-18T13:02:23;101116.44;;;5.15;27.69
4570;BME280;2297;51.442;6.996;2022-12-18T13:04:53;101126.97;;;5.22;27.74
4570;BME280;2297;51.442;6.996;2022-12-18T13:07:26;101130.56;;;5.27;27.72
4570;BME280;2297;51.442;6.996;2022-12-18T13:10:31;101121.31;;;4.91;27.72
4570;BME280;2297;51.442;6.996;2022-12-18T13:12:59;101126.91;;;4.60;28.01
4570;BME280;2297;51.442;6.996;2022-12-18T13:15:31;101130.75;;;4.81;28.11
4570;BME280;2297;51.442;6.996;2022-12-18T13:18:21;101121.56;;;4.53;28.42
4570;BME280;2297;51.442;6.996;2022-12-18T13:20:49;101117.00;;;4.42;28.51
4570;BME280;2297;51.442;6.996;2022-12-18T13:23:28;101116.56;;;4.67;28.55
4570;BME280;2297;51.442;6.996;2022-12-18T13:25:56;101117.16;;;4.52;28.79
4570;BME280;2297;51.442;6.996;2022-12-18T13:28:50;101103.47;;;4.65;28.71
4570;BME280;2297;51.442;6.996;2022-12-18T13:34:36;101106.19;;;4.22;29.19
4570;BME280;2297;51.442;6.996;2022-12-18T13:37:40;101096.31;;;4.04;29.69
4570;BME280;2297;51.442;6.996;2022-12-18T13:43:24;101076.63;;;4.25;29.69
4570;BME280;2297;51.442;6.996;2022-12-18T13:46:06;101077.66;;;4.35;29.76